createdAt,value
2023-04-08T00:00:13.650Z,5.58
2023-04-08T00:01:13.641Z,5.58
2023-04-08T00:02:13.742Z,5.56
2023-04-08T00:03:13.920Z,5.56
2023-04-08T00:04:13.796Z,5.55
2023-04-08T00:05:13.585Z,5.49
2023-04-08T00:06:13.597Z,5.47
2023-04-08T00:07:13.718Z,5.44
2023-04-08T00:08:13.609Z,5.40
2023-04-08T00:09:13.572Z,5.38
2023-04-08T00:10:13.531Z,5.33
2023-04-08T00:11:13.535Z,5.33
2023-04-08T00:12:13.536Z,5.27
2023-04-08T00:13:13.513Z,5.27
2023-04-08T00:14:13.530Z,5.26
2023-04-08T00:15:13.517Z,5.24
2023-04-08T00:16:13.508Z,5.24
2023-04-08T00:17:13.510Z,5.24
2023-04-08T00:18:13.467Z,5.23
2023-04-08T00:19:13.451Z,5.22
2023-04-08T00:20:13.477Z,5.19
2023-04-08T00:21:13.437Z,5.17
2023-04-08T00:22:13.418Z,5.12
2023-04-08T00:23:13.429Z,5.11
2023-04-08T00:24:13.399Z,5.06
2023-04-08T00:25:13.407Z,5.05
2023-04-08T00:26:13.378Z,5.02
2023-04-08T00:27:13.356Z,4.99
2023-04-08T00:28:13.395Z,4.97
2023-04-08T00:29:13.339Z,4.93
2023-04-08T00:30:13.341Z,4.90
2023-04-08T00:31:13.356Z,4.88
2023-04-08T00:32:13.327Z,4.84
2023-04-08T00:33:13.371Z,4.80
2023-04-08T00:34:13.257Z,4.77
2023-04-08T00:35:13.305Z,4.74
2023-04-08T00:36:13.263Z,4.72
2023-04-08T00:37:13.233Z,4.71
2023-04-08T00:38:13.217Z,4.68
2023-04-08T00:39:13.209Z,4.65
2023-04-08T00:40:13.203Z,4.61
2023-04-08T00:41:13.286Z,4.61
2023-04-08T00:42:13.156Z,4.59
2023-04-08T00:43:13.158Z,4.57
2023-04-08T00:44:13.177Z,4.54
2023-04-08T00:45:13.158Z,4.53
2023-04-08T00:46:13.154Z,4.50
2023-04-08T00:47:13.159Z,4.49
2023-04-08T00:48:13.107Z,4.47
2023-04-08T00:49:13.107Z,4.47
2023-04-08T00:50:13.092Z,4.46
2023-04-08T00:51:13.162Z,4.43
2023-04-08T00:52:13.068Z,4.43
2023-04-08T00:53:13.078Z,4.39
2023-04-08T00:54:13.066Z,4.36
2023-04-08T00:55:13.026Z,4.34
2023-04-08T00:56:13.053Z,4.34
2023-04-08T00:57:12.976Z,4.32
2023-04-08T00:58:12.975Z,4.31
2023-04-08T00:59:12.953Z,4.28
2023-04-08T01:00:12.949Z,4.25
2023-04-08T01:01:12.990Z,4.21
2023-04-08T01:02:13.198Z,4.20
2023-04-08T01:03:13.056Z,4.14
2023-04-08T01:04:12.972Z,4.08
2023-04-08T01:05:12.887Z,4.07
2023-04-08T01:06:12.900Z,4.02
2023-04-08T01:07:12.879Z,4.00
2023-04-08T01:08:12.856Z,3.99
2023-04-08T01:09:12.859Z,3.96
2023-04-08T01:10:12.853Z,3.96
2023-04-08T01:11:12.844Z,3.96
2023-04-08T01:12:12.820Z,3.95
2023-04-08T01:13:12.799Z,3.93
2023-04-08T01:14:12.795Z,3.92
2023-04-08T01:15:12.781Z,3.88
2023-04-08T01:16:12.881Z,3.82
2023-04-08T01:17:12.757Z,3.80
2023-04-08T01:18:12.778Z,3.80
2023-04-08T01:19:12.726Z,3.77
2023-04-08T01:20:12.726Z,3.77
2023-04-08T01:21:12.751Z,3.75
2023-04-08T01:22:12.702Z,3.72
2023-04-08T01:23:12.680Z,3.72
2023-04-08T01:24:12.683Z,3.70
2023-04-08T01:25:12.672Z,3.63
2023-04-08T01:26:12.691Z,3.59
2023-04-08T01:27:12.638Z,3.54
2023-04-08T01:28:12.638Z,3.53
2023-04-08T01:29:12.625Z,3.54
2023-04-08T01:30:12.619Z,3.53
2023-04-08T01:31:12.649Z,3.54
2023-04-08T01:32:12.609Z,3.54
2023-04-08T01:33:12.585Z,3.52
2023-04-08T01:34:12.564Z,3.50
2023-04-08T01:35:12.559Z,3.46
2023-04-08T01:36:12.566Z,3.46
2023-04-08T01:37:12.533Z,3.46
2023-04-08T01:38:12.554Z,3.44
2023-04-08T01:39:12.508Z,3.44
2023-04-08T01:40:12.517Z,3.44
2023-04-08T01:41:12.515Z,3.45
2023-04-08T01:42:12.489Z,3.44
2023-04-08T01:43:12.466Z,3.42
2023-04-08T01:44:12.462Z,3.41
2023-04-08T01:45:12.450Z,3.44
2023-04-08T01:46:12.485Z,3.44
2023-04-08T01:47:12.441Z,3.42
2023-04-08T01:48:12.418Z,3.41
2023-04-08T01:49:12.407Z,3.37
2023-04-08T01:50:12.410Z,3.35
2023-04-08T01:51:12.406Z,3.33
2023-04-08T01:52:12.376Z,3.30
2023-04-08T01:53:12.392Z,3.28
2023-04-08T01:54:12.368Z,3.26
2023-04-08T01:55:12.346Z,3.28
2023-04-08T01:56:12.361Z,3.26
2023-04-08T01:57:12.336Z,3.25
2023-04-08T01:58:12.317Z,3.22
2023-04-08T01:59:12.303Z,3.19
2023-04-08T02:00:12.305Z,3.17
2023-04-08T02:01:12.300Z,3.17
2023-04-08T02:02:12.327Z,3.15
2023-04-08T02:03:12.443Z,3.13
2023-04-08T02:04:12.278Z,3.12
2023-04-08T02:05:12.234Z,3.10
2023-04-08T02:06:12.302Z,3.08
2023-04-08T02:07:12.227Z,3.08
2023-04-08T02:08:12.221Z,3.10
2023-04-08T02:09:12.236Z,3.12
2023-04-08T02:10:12.222Z,3.08
2023-04-08T02:11:12.251Z,3.07
2023-04-08T02:12:12.182Z,3.05
2023-04-08T02:13:12.183Z,3.05
2023-04-08T02:14:12.139Z,3.05
2023-04-08T02:15:12.172Z,3.04
2023-04-08T02:16:12.190Z,2.99
2023-04-08T02:17:12.110Z,2.99
2023-04-08T02:18:12.170Z,2.97
2023-04-08T02:19:12.147Z,2.97
2023-04-08T02:20:12.090Z,2.95
2023-04-08T02:21:12.104Z,2.94
2023-04-08T02:22:12.063Z,2.94
2023-04-08T02:23:12.082Z,2.94
2023-04-08T02:24:12.042Z,2.92
2023-04-08T02:25:12.030Z,2.89
2023-04-08T02:26:12.032Z,2.89
2023-04-08T02:27:12.015Z,2.89
2023-04-08T02:28:11.994Z,2.86
2023-04-08T02:29:11.999Z,2.84
2023-04-08T02:30:11.977Z,2.81
2023-04-08T02:31:12.056Z,2.80
2023-04-08T02:32:11.963Z,2.79
2023-04-08T02:33:12.000Z,2.77
2023-04-08T02:34:11.931Z,2.77
2023-04-08T02:35:11.963Z,2.76
2023-04-08T02:36:11.957Z,2.74
2023-04-08T02:37:11.892Z,2.73
2023-04-08T02:38:11.879Z,2.73
2023-04-08T02:39:11.891Z,2.68
2023-04-08T02:40:11.855Z,2.68
2023-04-08T02:41:11.924Z,2.68
2023-04-08T02:42:12.056Z,2.65
2023-04-08T02:43:11.818Z,2.63
2023-04-08T02:44:11.814Z,2.62
2023-04-08T02:45:11.818Z,2.62
2023-04-08T02:46:11.893Z,2.59
2023-04-08T02:47:11.800Z,2.62
2023-04-08T02:48:11.774Z,2.61
2023-04-08T02:49:11.795Z,2.61
2023-04-08T02:50:11.738Z,2.59
2023-04-08T02:51:11.797Z,2.59
2023-04-08T02:52:11.750Z,2.58
2023-04-08T02:53:11.729Z,2.56
2023-04-08T02:54:11.719Z,2.55
2023-04-08T02:55:11.684Z,2.53
2023-04-08T02:56:11.738Z,2.51
2023-04-08T02:57:11.671Z,2.53
2023-04-08T02:58:11.645Z,2.53
2023-04-08T02:59:11.662Z,2.51
2023-04-08T03:00:11.662Z,2.51
2023-04-08T03:01:11.664Z,2.51
2023-04-08T03:02:11.684Z,2.51
2023-04-08T03:03:11.849Z,2.51
2023-04-08T03:04:11.588Z,2.53
2023-04-08T03:05:11.579Z,2.51
2023-04-08T03:06:11.608Z,2.51
2023-04-08T03:07:11.602Z,2.50
2023-04-08T03:08:11.558Z,2.51
2023-04-08T03:09:11.545Z,2.48
2023-04-08T03:10:12.398Z,2.50
2023-04-08T03:11:11.544Z,2.50
2023-04-08T03:12:11.509Z,2.50
2023-04-08T03:13:11.518Z,2.53
2023-04-08T03:14:11.510Z,2.55
2023-04-08T03:15:11.473Z,2.55
2023-04-08T03:16:11.501Z,2.55
2023-04-08T03:17:11.469Z,2.51
2023-04-08T03:18:11.434Z,2.55
2023-04-08T03:19:11.423Z,2.56
2023-04-08T03:20:11.429Z,2.56
2023-04-08T03:21:11.466Z,2.56
2023-04-08T03:22:11.406Z,2.59
2023-04-08T03:23:11.371Z,2.58
2023-04-08T03:24:11.349Z,2.59
2023-04-08T03:25:11.367Z,2.61
2023-04-08T03:26:11.372Z,2.62
2023-04-08T03:27:11.325Z,2.62
2023-04-08T03:28:11.401Z,2.63
2023-04-08T03:29:11.316Z,2.63
2023-04-08T03:30:11.292Z,2.65
2023-04-08T03:31:11.347Z,2.69
2023-04-08T03:32:11.407Z,2.71
2023-04-08T03:33:11.360Z,2.73
2023-04-08T03:34:11.292Z,2.76
2023-04-08T03:35:11.265Z,2.79
2023-04-08T03:36:11.286Z,2.80
2023-04-08T03:37:11.242Z,2.84
2023-04-08T03:38:11.217Z,2.86
2023-04-08T03:39:11.249Z,2.89
2023-04-08T03:40:11.182Z,2.90
2023-04-08T03:41:11.197Z,2.94
2023-04-08T03:42:11.166Z,2.94
2023-04-08T03:43:11.142Z,2.94
2023-04-08T03:44:11.149Z,2.94
2023-04-08T03:45:11.155Z,2.95
2023-04-08T03:46:11.226Z,2.98
2023-04-08T03:47:11.127Z,2.99
2023-04-08T03:48:11.088Z,3.01
2023-04-08T03:49:11.100Z,3.02
2023-04-08T03:50:11.061Z,3.02
2023-04-08T03:51:11.122Z,3.04
2023-04-08T03:52:11.040Z,3.07
2023-04-08T03:53:11.025Z,3.08
2023-04-08T03:54:11.030Z,3.08
2023-04-08T03:55:11.001Z,3.10
2023-04-08T03:56:11.056Z,3.04
2023-04-08T03:57:11.000Z,3.02
2023-04-08T03:58:11.012Z,3.01
2023-04-08T03:59:10.974Z,3.01
2023-04-08T04:00:10.964Z,3.02
2023-04-08T04:01:10.978Z,3.04
2023-04-08T04:02:10.996Z,3.05
2023-04-08T04:03:11.034Z,3.08
2023-04-08T04:04:11.200Z,3.13
2023-04-08T04:05:10.925Z,3.15
2023-04-08T04:06:10.944Z,3.19
2023-04-08T04:07:10.904Z,3.22
2023-04-08T04:08:10.865Z,3.23
2023-04-08T04:09:10.858Z,3.25
2023-04-08T04:10:10.878Z,3.26
2023-04-08T04:11:10.867Z,3.26
2023-04-08T04:12:10.840Z,3.26
2023-04-08T04:13:10.794Z,3.28
2023-04-08T04:14:10.851Z,3.30
2023-04-08T04:15:10.809Z,3.33
2023-04-08T04:16:10.852Z,3.33
2023-04-08T04:17:10.761Z,3.37
2023-04-08T04:18:10.869Z,3.41
2023-04-08T04:19:10.791Z,3.44
2023-04-08T04:20:10.813Z,3.49
2023-04-08T04:21:10.757Z,3.50
2023-04-08T04:22:10.784Z,3.53
2023-04-08T04:23:10.697Z,3.56
2023-04-08T04:24:10.688Z,3.57
2023-04-08T04:25:10.683Z,3.60
2023-04-08T04:26:10.701Z,3.62
2023-04-08T04:27:10.684Z,3.64
2023-04-08T04:28:10.641Z,3.64
2023-04-08T04:29:10.689Z,3.68
2023-04-08T04:30:10.644Z,3.70
2023-04-08T04:31:10.906Z,3.72
2023-04-08T04:32:10.583Z,3.74
2023-04-08T04:33:10.571Z,3.77
2023-04-08T04:34:10.561Z,3.78
2023-04-08T04:35:10.620Z,3.78
2023-04-08T04:36:10.588Z,3.78
2023-04-08T04:37:10.545Z,3.78
2023-04-08T04:38:10.560Z,3.78
2023-04-08T04:39:10.512Z,3.84
2023-04-08T04:40:10.536Z,3.84
2023-04-08T04:41:10.511Z,3.88
2023-04-08T04:42:10.509Z,3.89
2023-04-08T04:43:10.480Z,3.89
2023-04-08T04:44:10.460Z,3.88
2023-04-08T04:45:10.453Z,3.84
2023-04-08T04:46:10.473Z,3.86
2023-04-08T04:47:10.408Z,3.88
2023-04-08T04:48:10.402Z,3.88
2023-04-08T04:49:10.384Z,3.90
2023-04-08T04:50:10.380Z,3.92
2023-04-08T04:51:10.390Z,3.92
2023-04-08T04:52:10.376Z,3.93
2023-04-08T04:53:10.347Z,3.98
2023-04-08T04:54:10.319Z,4.00
2023-04-08T04:55:10.324Z,4.04
2023-04-08T04:56:10.327Z,4.06
2023-04-08T04:57:10.304Z,4.04
2023-04-08T04:58:10.276Z,4.04
2023-04-08T04:59:10.273Z,4.06
2023-04-08T05:00:10.266Z,4.07
2023-04-08T05:01:10.300Z,4.10
2023-04-08T05:02:10.333Z,4.10
2023-04-08T05:03:10.449Z,4.11
2023-04-08T05:04:10.213Z,4.13
2023-04-08T05:05:10.241Z,4.16
2023-04-08T05:06:10.215Z,4.18
2023-04-08T05:07:10.275Z,4.24
2023-04-08T05:08:10.167Z,4.28
2023-04-08T05:09:10.169Z,4.28
2023-04-08T05:10:10.154Z,4.29
2023-04-08T05:11:10.171Z,4.32
2023-04-08T05:12:10.134Z,4.39
2023-04-08T05:13:10.132Z,4.42
2023-04-08T05:14:10.160Z,4.44
2023-04-08T05:15:10.188Z,4.50
2023-04-08T05:16:10.310Z,4.51
2023-04-08T05:17:10.078Z,4.56
2023-04-08T05:18:10.148Z,4.57
2023-04-08T05:19:10.060Z,4.64
2023-04-08T05:20:10.044Z,4.65
2023-04-08T05:21:10.102Z,4.65
2023-04-08T05:22:10.025Z,4.68
2023-04-08T05:23:10.016Z,4.67
2023-04-08T05:24:10.011Z,4.69
2023-04-08T05:25:09.996Z,4.69
2023-04-08T05:26:10.001Z,4.74
2023-04-08T05:27:10.010Z,4.79
2023-04-08T05:28:09.958Z,4.80
2023-04-08T05:29:09.946Z,4.84
2023-04-08T05:30:09.948Z,4.88
2023-04-08T05:31:09.995Z,4.91
2023-04-08T05:32:09.926Z,4.93
2023-04-08T05:33:09.944Z,4.96
2023-04-08T05:34:09.893Z,4.99
2023-04-08T05:35:09.913Z,4.99
2023-04-08T05:36:09.899Z,5.04
2023-04-08T05:37:09.865Z,5.05
2023-04-08T05:38:09.847Z,5.08
2023-04-08T05:39:09.870Z,5.09
2023-04-08T05:40:09.877Z,5.09
2023-04-08T05:41:09.835Z,5.12
2023-04-08T05:42:09.829Z,5.19
2023-04-08T05:43:09.791Z,5.22
2023-04-08T05:44:09.790Z,5.26
2023-04-08T05:45:09.773Z,5.27
2023-04-08T05:46:09.788Z,5.30
2023-04-08T05:47:09.898Z,5.35
2023-04-08T05:48:09.764Z,5.37
2023-04-08T05:49:09.736Z,5.33
2023-04-08T05:50:09.717Z,5.40
2023-04-08T05:51:09.751Z,5.44
2023-04-08T05:52:09.695Z,5.49
2023-04-08T05:53:09.689Z,5.49
2023-04-08T05:54:09.674Z,5.56
2023-04-08T05:55:09.660Z,5.60
2023-04-08T05:56:09.660Z,5.66
2023-04-08T05:57:10.517Z,5.70
2023-04-08T05:58:09.625Z,5.73
2023-04-08T05:59:09.620Z,5.75
2023-04-08T06:00:09.637Z,5.78
2023-04-08T06:01:09.604Z,5.80
2023-04-08T06:02:09.634Z,5.80
2023-04-08T06:03:09.665Z,5.84
2023-04-08T06:04:09.676Z,5.85
2023-04-08T06:05:09.544Z,5.90
2023-04-08T06:06:09.557Z,5.93
2023-04-08T06:07:09.532Z,5.95
2023-04-08T06:08:09.496Z,5.96
2023-04-08T06:09:09.534Z,5.98
2023-04-08T06:10:09.495Z,6.02
2023-04-08T06:11:09.493Z,6.03
2023-04-08T06:12:09.453Z,6.06
2023-04-08T06:13:09.525Z,6.05
2023-04-08T06:14:09.438Z,6.05
2023-04-08T06:15:09.436Z,6.05
2023-04-08T06:16:09.455Z,6.03
2023-04-08T06:17:09.502Z,6.10
2023-04-08T06:18:09.390Z,6.14
2023-04-08T06:19:09.371Z,6.10
2023-04-08T06:20:09.382Z,6.16
2023-04-08T06:21:09.437Z,6.27
2023-04-08T06:22:09.339Z,6.33
2023-04-08T06:23:09.370Z,6.42
2023-04-08T06:24:09.342Z,6.46
2023-04-08T06:25:09.310Z,6.51
2023-04-08T06:26:09.331Z,6.55
2023-04-08T06:27:09.278Z,6.61
2023-04-08T06:28:09.277Z,6.65
2023-04-08T06:29:09.266Z,6.65
2023-04-08T06:30:09.249Z,6.64
2023-04-08T06:31:09.254Z,6.64
2023-04-08T06:32:09.264Z,6.63
2023-04-08T06:33:09.264Z,6.68
2023-04-08T06:34:09.211Z,6.71
2023-04-08T06:35:09.197Z,6.75
2023-04-08T06:36:09.255Z,6.78
2023-04-08T06:37:09.180Z,6.82
2023-04-08T06:38:09.165Z,6.86
2023-04-08T06:39:09.139Z,6.90
2023-04-08T06:40:09.144Z,6.91
2023-04-08T06:41:09.167Z,6.91
2023-04-08T06:42:09.115Z,6.94
2023-04-08T06:43:09.095Z,6.91
2023-04-08T06:44:09.089Z,6.83
2023-04-08T06:45:09.076Z,6.81
2023-04-08T06:46:09.327Z,6.81
2023-04-08T06:47:09.054Z,6.79
2023-04-08T06:48:09.050Z,6.83
2023-04-08T06:49:09.029Z,6.87
2023-04-08T06:50:09.039Z,6.87
2023-04-08T06:51:09.041Z,6.93
2023-04-08T06:52:09.004Z,7.00
2023-04-08T06:53:08.988Z,7.01
2023-04-08T06:54:08.981Z,7.15
2023-04-08T06:55:08.966Z,7.24
2023-04-08T06:56:08.978Z,7.21
2023-04-08T06:57:08.949Z,7.21
2023-04-08T06:58:08.942Z,7.27
2023-04-08T06:59:09.268Z,7.32
2023-04-08T07:00:08.915Z,7.23
2023-04-08T07:01:08.964Z,7.15
2023-04-08T07:02:08.929Z,7.16
2023-04-08T07:03:08.934Z,7.05
2023-04-08T07:04:08.889Z,7.08
2023-04-08T07:05:08.855Z,7.14
2023-04-08T07:06:08.881Z,7.21
2023-04-08T07:07:08.829Z,7.32
2023-04-08T07:08:08.830Z,7.45
2023-04-08T07:09:08.842Z,7.57
2023-04-08T07:10:10.951Z,7.58
2023-04-08T07:11:08.796Z,7.51
2023-04-08T07:12:08.779Z,7.55
2023-04-08T07:13:08.775Z,7.55
2023-04-08T07:14:08.757Z,7.54
2023-04-08T07:15:08.762Z,7.52
2023-04-08T07:16:08.751Z,7.48
2023-04-08T07:17:08.781Z,7.48
2023-04-08T07:18:08.723Z,7.51
2023-04-08T07:19:08.698Z,7.50
2023-04-08T07:20:08.698Z,7.52
2023-04-08T07:21:08.688Z,7.52
2023-04-08T07:22:08.667Z,7.55
2023-04-08T07:23:08.654Z,7.55
2023-04-08T07:24:08.653Z,7.52
2023-04-08T07:25:08.628Z,7.52
2023-04-08T07:26:08.640Z,7.52
2023-04-08T07:27:08.602Z,7.55
2023-04-08T07:28:08.597Z,7.57
2023-04-08T07:29:08.586Z,7.52
2023-04-08T07:30:08.580Z,7.47
2023-04-08T07:31:08.652Z,7.42
2023-04-08T07:32:08.555Z,7.44
2023-04-08T07:33:08.680Z,7.41
2023-04-08T07:34:08.519Z,7.42
2023-04-08T07:35:08.521Z,7.44
2023-04-08T07:36:08.518Z,7.45
2023-04-08T07:37:08.492Z,7.45
2023-04-08T07:38:08.532Z,7.48
2023-04-08T07:39:08.470Z,7.50
2023-04-08T07:40:08.457Z,7.54
2023-04-08T07:41:08.486Z,7.62
2023-04-08T07:42:08.435Z,7.69
2023-04-08T07:43:08.425Z,7.70
2023-04-08T07:44:08.414Z,7.77
2023-04-08T07:45:08.401Z,7.82
2023-04-08T07:46:08.415Z,7.88
2023-04-08T07:47:08.373Z,7.89
2023-04-08T07:48:08.413Z,7.84
2023-04-08T07:49:08.353Z,7.85
2023-04-08T07:50:08.350Z,7.88
2023-04-08T07:51:10.893Z,7.92
2023-04-08T07:52:08.326Z,7.94
2023-04-08T07:53:08.311Z,7.96
2023-04-08T07:54:08.335Z,7.88
2023-04-08T07:55:08.282Z,7.81
2023-04-08T07:56:08.340Z,7.85
2023-04-08T07:57:08.265Z,7.77
2023-04-08T07:58:08.261Z,7.74
2023-04-08T07:59:08.234Z,7.74
2023-04-08T08:00:08.237Z,7.76
2023-04-08T08:01:08.264Z,7.84
2023-04-08T08:02:08.258Z,7.91
2023-04-08T08:03:08.317Z,7.92
2023-04-08T08:04:08.257Z,8.00
2023-04-08T08:05:08.234Z,8.04
2023-04-08T08:06:08.181Z,8.02
2023-04-08T08:07:08.148Z,8.02
2023-04-08T08:08:08.142Z,8.02
2023-04-08T08:09:08.143Z,8.07
2023-04-08T08:10:08.126Z,8.21
2023-04-08T08:11:08.129Z,8.39
2023-04-08T08:12:08.116Z,8.49
2023-04-08T08:13:08.107Z,8.52
2023-04-08T08:14:08.093Z,8.46
2023-04-08T08:15:08.066Z,8.49
2023-04-08T08:16:08.125Z,8.47
2023-04-08T08:17:08.034Z,8.40
2023-04-08T08:18:08.081Z,8.27
2023-04-08T08:19:08.011Z,8.28
2023-04-08T08:20:08.008Z,8.29
2023-04-08T08:21:08.053Z,8.25
2023-04-08T08:22:07.998Z,8.27
2023-04-08T08:23:07.983Z,8.32
2023-04-08T08:24:07.972Z,8.46
2023-04-08T08:25:07.953Z,8.49
2023-04-08T08:26:07.958Z,8.50
2023-04-08T08:27:07.939Z,8.47
2023-04-08T08:28:07.917Z,8.54
2023-04-08T08:29:07.900Z,8.58
2023-04-08T08:30:07.904Z,8.50
2023-04-08T08:31:07.949Z,8.37
2023-04-08T08:32:07.872Z,8.39
2023-04-08T08:33:08.039Z,8.34
2023-04-08T08:34:07.847Z,8.31
2023-04-08T08:35:07.843Z,8.29
2023-04-08T08:36:07.892Z,8.28
2023-04-08T08:37:07.810Z,8.31
2023-04-08T08:38:07.800Z,8.39
2023-04-08T08:39:07.793Z,8.49
2023-04-08T08:40:07.796Z,8.57
2023-04-08T08:41:07.842Z,8.63
2023-04-08T08:42:07.759Z,8.58
2023-04-08T08:43:07.752Z,8.60
2023-04-08T08:44:07.740Z,8.64
2023-04-08T08:45:07.728Z,8.71
2023-04-08T08:46:08.122Z,8.67
2023-04-08T08:47:07.708Z,8.67
2023-04-08T08:48:07.703Z,8.71
2023-04-08T08:49:07.700Z,8.76
2023-04-08T08:50:07.684Z,8.83
2023-04-08T08:51:07.648Z,8.93
2023-04-08T08:52:07.670Z,9.04
2023-04-08T08:53:07.631Z,9.12
2023-04-08T08:54:07.635Z,9.16
2023-04-08T08:55:21.481Z,9.20
2023-04-08T08:56:17.798Z,9.20
2023-04-08T08:57:07.629Z,9.27
2023-04-08T08:58:07.583Z,9.31
2023-04-08T08:59:07.591Z,9.24
2023-04-08T09:00:07.552Z,9.20
2023-04-08T09:01:07.539Z,9.20
2023-04-08T09:02:07.636Z,9.24
2023-04-08T09:03:07.712Z,9.30
2023-04-08T09:04:07.647Z,9.37
2023-04-08T09:05:07.626Z,9.40
2023-04-08T09:06:07.497Z,9.35
2023-04-08T09:07:07.486Z,9.26
2023-04-08T09:08:07.467Z,9.17
2023-04-08T09:09:07.469Z,9.12
2023-04-08T09:10:07.438Z,9.10
2023-04-08T09:11:07.456Z,9.12
2023-04-08T09:12:07.418Z,9.19
2023-04-08T09:13:07.436Z,9.22
2023-04-08T09:14:07.397Z,9.31
2023-04-08T09:15:07.384Z,9.38
2023-04-08T09:16:07.409Z,9.42
2023-04-08T09:17:07.361Z,9.48
2023-04-08T09:18:07.397Z,9.50
2023-04-08T09:19:07.342Z,9.42
2023-04-08T09:20:07.325Z,9.38
2023-04-08T09:21:07.303Z,9.34
2023-04-08T09:22:07.305Z,9.30
2023-04-08T09:23:07.283Z,9.32
2023-04-08T09:24:07.301Z,9.37
2023-04-08T09:25:07.259Z,9.35
2023-04-08T09:26:07.255Z,9.44
2023-04-08T09:27:07.244Z,9.65
2023-04-08T09:28:07.242Z,9.74
2023-04-08T09:29:24.140Z,9.88
2023-04-08T09:30:07.264Z,9.91
2023-04-08T09:31:07.195Z,10.01
2023-04-08T09:32:07.245Z,9.99
2023-04-08T09:33:07.363Z,10.01
2023-04-08T09:34:07.172Z,9.83
2023-04-08T09:35:07.162Z,9.92
2023-04-08T09:36:07.225Z,10.01
2023-04-08T09:37:07.303Z,10.06
2023-04-08T09:38:07.129Z,10.11
2023-04-08T09:39:07.113Z,10.18
2023-04-08T09:40:07.100Z,10.29
2023-04-08T09:41:07.110Z,10.31
2023-04-08T09:42:07.100Z,10.35
2023-04-08T09:43:07.085Z,10.44
2023-04-08T09:44:07.083Z,10.55
2023-04-08T09:45:07.049Z,10.58
2023-04-08T09:46:07.073Z,10.65
2023-04-08T09:47:07.049Z,10.68
2023-04-08T09:48:07.069Z,10.51
2023-04-08T09:49:07.010Z,10.54
2023-04-08T09:50:06.983Z,10.60
2023-04-08T09:51:06.978Z,10.63
2023-04-08T09:52:06.972Z,10.69
2023-04-08T09:53:06.984Z,10.78
2023-04-08T09:54:06.943Z,10.78
2023-04-08T09:55:06.945Z,10.63
2023-04-08T09:56:06.954Z,10.54
2023-04-08T09:57:06.917Z,10.39
2023-04-08T09:58:06.927Z,10.35
2023-04-08T09:59:06.966Z,10.35
2023-04-08T10:00:06.894Z,10.38
2023-04-08T10:01:06.921Z,10.34
2023-04-08T10:02:07.021Z,10.26
2023-04-08T10:03:07.121Z,10.20
2023-04-08T10:04:06.904Z,10.14
2023-04-08T10:05:08.273Z,10.10
2023-04-08T10:06:06.810Z,9.99
2023-04-08T10:07:06.793Z,10.01
2023-04-08T10:08:06.788Z,9.91
2023-04-08T10:09:06.773Z,9.99
2023-04-08T10:10:06.803Z,10.10
2023-04-08T10:11:06.765Z,10.20
2023-04-08T10:12:06.747Z,10.29
2023-04-08T10:13:06.764Z,10.38
2023-04-08T10:14:06.749Z,10.31
2023-04-08T10:15:06.738Z,10.26
2023-04-08T10:16:07.619Z,10.35
2023-04-08T10:17:06.879Z,10.46
2023-04-08T10:18:06.713Z,10.55
2023-04-08T10:19:06.673Z,10.68
2023-04-08T10:20:06.668Z,10.75
2023-04-08T10:21:06.662Z,10.54
2023-04-08T10:22:07.958Z,10.66
2023-04-08T10:23:06.628Z,10.78
2023-04-08T10:24:06.632Z,10.95
2023-04-08T10:25:06.601Z,11.08
2023-04-08T10:26:06.616Z,11.09
2023-04-08T10:27:06.599Z,11.20
2023-04-08T10:28:07.555Z,11.09
2023-04-08T10:29:06.540Z,11.16
2023-04-08T10:30:06.538Z,11.27
2023-04-08T10:31:06.522Z,11.33
2023-04-08T10:32:06.601Z,11.28
2023-04-08T10:33:06.581Z,11.23
2023-04-08T10:34:06.504Z,11.02
2023-04-08T10:35:06.469Z,11.02
2023-04-08T10:36:06.531Z,11.01
2023-04-08T10:37:06.533Z,11.02
2023-04-08T10:38:06.441Z,10.99
2023-04-08T10:39:06.440Z,10.99
2023-04-08T10:40:06.419Z,11.05
2023-04-08T10:41:06.405Z,11.23
2023-04-08T10:42:06.423Z,11.42
2023-04-08T10:43:06.385Z,11.45
2023-04-08T10:44:06.367Z,11.48
2023-04-08T10:45:06.372Z,11.44
2023-04-08T10:46:06.390Z,11.51
2023-04-08T10:47:06.357Z,11.64
2023-04-08T10:48:06.318Z,11.78
2023-04-08T10:49:06.310Z,11.72
2023-04-08T10:50:06.303Z,11.75
2023-04-08T10:51:06.325Z,11.77
2023-04-08T10:52:06.298Z,11.78
2023-04-08T10:53:06.266Z,11.90
2023-04-08T10:54:06.248Z,11.93
2023-04-08T10:55:06.248Z,11.78
2023-04-08T10:56:06.268Z,11.85
2023-04-08T10:57:06.238Z,11.88
2023-04-08T10:58:06.203Z,11.96
2023-04-08T10:59:06.199Z,12.05
2023-04-08T11:00:06.199Z,12.13
2023-04-08T11:01:06.232Z,12.22
2023-04-08T11:02:06.265Z,12.21
2023-04-08T11:03:06.288Z,12.22
2023-04-08T11:04:06.311Z,12.25
2023-04-08T11:05:06.132Z,12.37
2023-04-08T11:06:06.124Z,12.41
2023-04-08T11:07:06.127Z,12.38
2023-04-08T11:08:06.100Z,12.26
2023-04-08T11:09:06.087Z,12.26
2023-04-08T11:10:06.081Z,12.33
2023-04-08T11:11:06.070Z,12.36
2023-04-08T11:12:06.062Z,12.44
2023-04-08T11:13:06.037Z,12.61
2023-04-08T11:14:06.036Z,12.77
2023-04-08T11:15:06.043Z,12.85
2023-04-08T11:16:16.966Z,12.95
2023-04-08T11:17:06.048Z,12.88
2023-04-08T11:18:06.024Z,12.79
2023-04-08T11:19:05.999Z,12.62
2023-04-08T11:20:05.967Z,12.62
2023-04-08T11:21:05.977Z,12.76
2023-04-08T11:22:05.963Z,12.88
2023-04-08T11:23:05.937Z,12.98
2023-04-08T11:24:05.913Z,13.09
2023-04-08T11:25:05.912Z,13.14
2023-04-08T11:26:06.400Z,13.16
2023-04-08T11:27:05.913Z,13.10
2023-04-08T11:28:05.875Z,13.17
2023-04-08T11:29:05.877Z,13.22
2023-04-08T11:30:05.851Z,13.04
2023-04-08T11:31:06.054Z,12.79
2023-04-08T11:32:05.827Z,12.73
2023-04-08T11:33:05.858Z,12.63
2023-04-08T11:34:05.799Z,12.54
2023-04-08T11:35:05.800Z,12.43
2023-04-08T11:36:05.876Z,12.44
2023-04-08T11:37:05.769Z,12.54
2023-04-08T11:38:05.797Z,12.67
2023-04-08T11:39:05.746Z,12.74
2023-04-08T11:40:05.746Z,12.80
2023-04-08T11:41:05.724Z,12.67
2023-04-08T11:42:05.707Z,12.56
2023-04-08T11:43:05.699Z,12.66
2023-04-08T11:44:05.706Z,12.67
2023-04-08T11:45:05.677Z,12.56
2023-04-08T11:46:05.681Z,12.56
2023-04-08T11:47:05.661Z,12.54
2023-04-08T11:48:05.670Z,12.38
2023-04-08T11:49:05.840Z,12.37
2023-04-08T11:50:05.629Z,12.37
2023-04-08T11:51:05.608Z,12.41
2023-04-08T11:52:05.591Z,12.26
2023-04-08T11:53:05.586Z,12.18
2023-04-08T11:54:05.573Z,12.12
2023-04-08T11:55:05.582Z,12.11
2023-04-08T11:56:05.554Z,12.12
2023-04-08T11:57:05.550Z,12.21
2023-04-08T11:58:05.530Z,12.31
2023-04-08T11:59:05.525Z,12.41
2023-04-08T12:00:05.530Z,12.62
2023-04-08T12:01:05.496Z,12.85
2023-04-08T12:02:05.524Z,12.89
2023-04-08T12:03:05.542Z,12.87
2023-04-08T12:04:05.524Z,12.88
2023-04-08T12:05:05.511Z,12.96
2023-04-08T12:06:05.460Z,12.89
2023-04-08T12:07:05.440Z,12.81
2023-04-08T12:08:05.433Z,12.94
2023-04-08T12:09:05.414Z,12.88
2023-04-08T12:10:05.409Z,12.89
2023-04-08T12:11:18.651Z,12.89
2023-04-08T12:12:05.407Z,12.98
2023-04-08T12:13:05.363Z,12.95
2023-04-08T12:14:05.349Z,13.03
2023-04-08T12:15:05.347Z,12.74
2023-04-08T12:16:05.354Z,12.44
2023-04-08T12:17:05.313Z,12.49
2023-04-08T12:18:05.380Z,12.63
2023-04-08T12:19:05.301Z,12.70
2023-04-08T12:20:05.285Z,12.74
2023-04-08T12:21:05.271Z,12.73
2023-04-08T12:22:05.255Z,12.74
2023-04-08T12:23:05.287Z,12.71
2023-04-08T12:24:05.236Z,12.73
2023-04-08T12:25:05.232Z,12.84
2023-04-08T12:26:05.221Z,12.98
2023-04-08T12:27:05.241Z,13.09
2023-04-08T12:28:05.188Z,13.12
2023-04-08T12:29:05.209Z,12.99
2023-04-08T12:30:05.176Z,13.01
2023-04-08T12:31:05.185Z,13.03
2023-04-08T12:32:05.147Z,12.96
2023-04-08T12:33:05.179Z,13.03
2023-04-08T12:34:05.129Z,13.10
2023-04-08T12:35:05.143Z,13.21
2023-04-08T12:36:05.122Z,13.10
2023-04-08T12:37:05.098Z,12.58
2023-04-08T12:38:05.080Z,12.55
2023-04-08T12:39:05.111Z,12.56
2023-04-08T12:40:05.061Z,12.61
2023-04-08T12:41:05.051Z,12.71
2023-04-08T12:42:05.035Z,12.73
2023-04-08T12:43:05.054Z,12.76
2023-04-08T12:44:05.026Z,12.77
2023-04-08T12:45:05.016Z,12.79
2023-04-08T12:46:04.991Z,12.77
2023-04-08T12:47:04.998Z,12.76
2023-04-08T12:48:05.002Z,12.79
2023-04-08T12:49:05.739Z,12.79
2023-04-08T12:50:04.968Z,12.81
2023-04-08T12:51:04.938Z,12.92
2023-04-08T12:52:04.918Z,13.01
2023-04-08T12:53:04.922Z,12.95
2023-04-08T12:54:05.282Z,12.81
2023-04-08T12:55:04.899Z,12.76
2023-04-08T12:56:04.892Z,12.76
2023-04-08T12:57:04.881Z,12.59
2023-04-08T12:58:04.847Z,12.61
2023-04-08T12:59:04.896Z,12.69
2023-04-08T13:00:04.859Z,12.76
2023-04-08T13:01:04.857Z,12.80
2023-04-08T13:02:04.884Z,12.73
2023-04-08T13:03:04.862Z,12.70
2023-04-08T13:04:04.830Z,12.59
2023-04-08T13:05:04.810Z,12.55
2023-04-08T13:06:04.769Z,12.67
2023-04-08T13:07:04.755Z,12.58
2023-04-08T13:08:04.734Z,12.56
2023-04-08T13:09:04.739Z,12.58
2023-04-08T13:10:04.714Z,12.69
2023-04-08T13:11:04.760Z,12.73